Time;durP1;ratioP1;P1;durP2;ratioP2;P2;SDS_P1;SDS_P2;PMS_P1;PMS_P2;Temp;Humidity;BMP_temperature;BMP_pressure;BME280_temperature;BME280_humidity;BME280_pressure;Samples;Min_cycle;Max_cycle;Signal;HPM_P1;HPM_P2
2021/05/29 00:00:08;;;;;;;3.80;1.95;;;;;;;19.88;46.13;102336.97;5030280;28;20034;-59
2021/05/29 00:02:36;;;;;;;4.43;1.92;;;;;;;19.87;46.27;102333.50;5031250;28;20025;-60
2021/05/29 00:05:05;;;;;;;5.45;2.10;;;;;;;19.87;46.33;102336.13;5032784;28;20377;-58
2021/05/29 00:07:30;;;;;;;3.80;2.13;;;;;;;19.86;46.14;102341.53;5034059;28;20087;-59
2021/05/29 00:09:56;;;;;;;3.67;2.00;;;;;;;19.85;46.05;102332.75;5034789;28;20473;-59
2021/05/29 00:12:21;;;;;;;3.75;1.85;;;;;;;19.83;46.30;102334.63;5034328;28;20025;-59
2021/05/29 00:14:48;;;;;;;3.95;1.95;;;;;;;19.83;46.17;102333.78;5034036;28;20028;-59
2021/05/29 00:17:13;;;;;;;3.92;2.10;;;;;;;19.83;46.41;102331.97;5034616;28;20059;-59
2021/05/29 00:19:39;;;;;;;4.53;1.90;;;;;;;19.82;46.21;102337.38;5034834;28;20120;-59
2021/05/29 00:22:04;;;;;;;4.28;2.13;;;;;;;19.82;46.27;102332.94;5033559;28;20036;-58
2021/05/29 00:24:32;;;;;;;3.88;2.10;;;;;;;19.80;46.04;102332.19;5034618;28;20021;-59
2021/05/29 00:26:59;;;;;;;3.67;2.00;;;;;;;19.81;46.26;102338.34;5034264;28;20026;-59
2021/05/29 00:29:24;;;;;;;4.25;1.95;;;;;;;19.80;46.22;102341.91;5034097;28;20022;-60
2021/05/29 00:31:50;;;;;;;3.67;2.10;;;;;;;19.77;46.27;102337.66;5034382;28;20052;-58
2021/05/29 00:34:15;;;;;;;3.63;2.00;;;;;;;19.78;46.17;102339.38;5033780;28;20021;-60
2021/05/29 00:36:40;;;;;;;3.13;1.67;;;;;;;19.78;46.37;102336.72;5034377;28;20041;-59
2021/05/29 00:39:06;;;;;;;3.80;2.10;;;;;;;19.77;46.37;102340.31;5034023;28;20060;-60
2021/05/29 00:41:31;;;;;;;4.13;2.03;;;;;;;19.75;46.12;102343.03;5033473;28;20029;-59
2021/05/29 00:43:57;;;;;;;3.72;1.95;;;;;;;19.71;46.03;102336.25;5034368;28;20033;-58
2021/05/29 00:46:22;;;;;;;3.63;2.05;;;;;;;19.73;46.16;102339.63;5034031;28;20044;-60
2021/05/29 00:48:48;;;;;;;3.45;1.88;;;;;;;19.74;46.38;102349.28;5034069;28;20068;-60
2021/05/29 00:51:13;;;;;;;3.42;1.90;;;;;;;19.74;46.27;102345.75;5033823;28;20113;-59
2021/05/29 00:53:39;;;;;;;4.45;2.10;;;;;;;19.72;46.27;102353.81;5034108;28;20064;-59
2021/05/29 00:56:06;;;;;;;3.85;2.13;;;;;;;19.72;46.37;102350.31;5032804;28;20028;-59
2021/05/29 00:58:34;;;;;;;4.35;1.77;;;;;;;19.72;46.23;102355.59;5033888;28;20099;-59
2021/05/29 01:01:00;;;;;;;4.07;2.17;;;;;;;19.70;46.09;102345.13;5034161;28;20139;-60
2021/05/29 01:03:28;;;;;;;3.97;2.20;;;;;;;19.71;45.96;102353.91;5032913;28;20176;-59
2021/05/29 01:05:53;;;;;;;3.45;1.90;;;;;;;19.69;46.36;102345.22;5033691;28;20496;-60
2021/05/29 01:08:25;;;;;;;3.58;2.08;;;;;;;19.68;46.19;102349.69;5033387;28;20026;-60
2021/05/29 01:10:50;;;;;;;4.63;2.25;;;;;;;19.69;45.95;102347.88;5032782;28;20029;-58
2021/05/29 01:13:16;;;;;;;3.60;1.90;;;;;;;19.68;46.09;102352.31;5033549;28;20025;-59
2021/05/29 01:15:44;;;;;;;3.60;1.88;;;;;;;19.67;46.31;102350.59;5033049;28;20032;-60
2021/05/29 01:18:12;;;;;;;3.17;1.77;;;;;;;19.65;45.91;102355.16;5032699;28;20485;-60
2021/05/29 01:20:39;;;;;;;4.18;2.17;;;;;;;19.66;46.23;102353.34;5033726;28;20096;-59
2021/05/29 01:23:05;;;;;;;3.75;1.80;;;;;;;19.65;46.25;102357.81;5033129;28;20113;-58
2021/05/29 01:25:37;;;;;;;3.40;1.90;;;;;;;19.66;46.28;102356.00;5032526;28;20112;-59
2021/05/29 01:28:17;;;;;;;4.18;1.80;;;;;;;19.66;45.84;102353.34;5033216;28;20033;-58
2021/05/29 01:30:47;;;;;;;3.50;1.80;;;;;;;19.64;45.93;102348.16;5032561;28;20377;-59
2021/05/29 01:33:22;;;;;;;3.45;1.85;;;;;;;19.63;46.06;102356.19;5033228;28;20045;-60
2021/05/29 01:35:48;;;;;;;4.13;2.00;;;;;;;19.63;46.08;102350.91;5033251;28;20477;-60
2021/05/29 01:38:15;;;;;;;3.88;1.80;;;;;;;19.60;45.99;102354.59;5032351;28;20060;-59
2021/05/29 01:40:44;;;;;;;3.65;2.00;;;;;;;19.62;46.19;102357.16;5033038;28;20375;-59
2021/05/29 01:43:11;;;;;;;3.55;1.70;;;;;;;19.60;45.99;102357.25;5032726;28;20021;-59
2021/05/29 01:45:37;;;;;;;3.50;1.70;;;;;;;19.60;46.20;102359.91;5032250;28;20029;-59
2021/05/29 01:48:04;;;;;;;3.83;1.90;;;;;;;19.57;45.78;102355.63;5032701;28;20101;-59
2021/05/29 01:50:30;;;;;;;3.75;2.10;;;;;;;19.58;46.13;102354.72;5032849;28;20534;-59
2021/05/29 01:52:58;;;;;;;4.05;2.08;;;;;;;19.56;46.06;102353.09;5032357;28;20108;-58
2021/05/29 01:55:29;;;;;;;4.57;1.88;;;;;;;19.58;46.18;102360.00;5032790;28;20083;-62
2021/05/29 01:57:58;;;;;;;4.35;1.90;;;;;;;19.57;45.90;102355.63;5032771;28;20432;-60
2021/05/29 02:00:26;;;;;;;3.72;2.00;;;;;;;19.54;45.91;102353.19;5031963;28;20022;-57
2021/05/29 02:02:52;;;;;;;3.38;1.80;;;;;;;19.55;46.05;102359.31;5032753;28;20021;-59
2021/05/29 02:05:21;;;;;;;4.60;1.80;;;;;;;19.56;46.26;102371.59;5032506;28;20103;-60
2021/05/29 02:07:47;;;;;;;4.47;2.10;;;;;;;19.55;46.10;102367.25;5031941;28;20109;-59
2021/05/29 02:10:20;;;;;;;3.42;2.00;;;;;;;19.51;45.73;102363.97;5032414;28;20079;-59
2021/05/29 02:12:48;;;;;;;3.50;1.92;;;;;;;19.54;45.89;102369.06;5032091;28;20037;-59
2021/05/29 02:15:17;;;;;;;3.60;1.80;;;;;;;19.53;46.17;102361.22;5032383;28;20029;-58
2021/05/29 02:17:44;;;;;;;3.50;1.98;;;;;;;19.52;45.86;102362.19;5032495;28;20486;-60
2021/05/29 02:20:11;;;;;;;3.15;1.70;;;;;;;19.52;45.81;102368.31;5031460;28;20102;-60
2021/05/29 02:22:37;;;;;;;3.67;1.58;;;;;;;19.51;46.09;102365.75;5031861;28;20079;-59
2021/05/29 02:25:04;;;;;;;3.42;1.80;;;;;;;19.52;45.82;102367.47;5031719;28;20029;-58
2021/05/29 02:27:32;;;;;;;4.25;2.05;;;;;;;19.51;46.25;102374.53;5030860;28;20094;-59
2021/05/29 02:29:57;;;;;;;3.22;1.80;;;;;;;19.50;45.95;102369.34;5031749;28;20025;-59
2021/05/29 02:32:23;;;;;;;3.45;1.65;;;;;;;19.48;45.95;102371.25;5031600;28;20507;-60
2021/05/29 02:34:54;;;;;;;3.13;1.60;;;;;;;19.49;45.74;102371.16;5031352;28;20018;-61
2021/05/29 02:37:19;;;;;;;3.05;1.92;;;;;;;19.48;45.70;102366.78;5032119;28;20026;-60
2021/05/29 02:39:45;;;;;;;3.45;1.83;;;;;;;19.48;45.89;102374.72;5031763;28;20366;-60
2021/05/29 02:42:10;;;;;;;3.65;2.10;;;;;;;19.47;45.75;102373.06;5030489;28;20104;-58
2021/05/29 02:44:35;;;;;;;3.60;1.80;;;;;;;19.47;45.75;102366.91;5031718;28;20029;-59
2021/05/29 02:47:04;;;;;;;3.75;1.75;;;;;;;19.46;45.82;102367.84;5031552;28;20030;-58
2021/05/29 02:49:29;;;;;;;3.58;2.05;;;;;;;19.46;46.12;102373.16;5031219;28;20099;-59
2021/05/29 02:51:54;;;;;;;3.70;2.03;;;;;;;19.43;45.76;102368.88;5031760;28;20488;-59
2021/05/29 02:54:23;;;;;;;3.85;1.90;;;;;;;19.45;45.98;102372.28;5031234;28;20440;-58
2021/05/29 02:56:49;;;;;;;3.08;1.60;;;;;;;19.45;45.63;102372.28;5030971;28;20074;-59
2021/05/29 02:59:15;;;;;;;3.45;1.88;;;;;;;19.43;46.10;102373.34;5031368;28;20024;-58
2021/05/29 03:01:43;;;;;;;3.13;1.70;;;;;;;19.44;46.11;102375.88;5031916;28;20025;-60
2021/05/29 03:04:09;;;;;;;3.75;1.90;;;;;;;19.44;46.06;102367.09;5031811;28;20033;-59
2021/05/29 03:06:34;;;;;;;3.17;1.90;;;;;;;19.42;45.73;102375.09;5031896;28;20021;-59
2021/05/29 03:09:00;;;;;;;3.50;1.85;;;;;;;19.43;46.04;102378.63;5031216;28;20157;-59
2021/05/29 03:11:41;;;;;;;2.92;1.50;;;;;;;19.42;45.70;102372.47;5031484;28;20392;-58
2021/05/29 03:14:06;;;;;;;3.80;1.70;;;;;;;19.41;46.09;102378.72;5031803;28;20052;-58
2021/05/29 03:16:32;;;;;;;3.10;1.70;;;;;;;19.41;46.02;102378.72;5030912;28;20457;-59
2021/05/29 03:18:57;;;;;;;2.63;1.33;;;;;;;19.40;45.82;102384.94;5031663;28;20029;-60
2021/05/29 03:21:22;;;;;;;3.53;1.70;;;;;;;19.40;46.04;102384.94;5031060;28;20053;-60
2021/05/29 03:24:00;;;;;;;3.90;1.77;;;;;;;19.37;45.70;102385.97;5030752;28;20025;-58
2021/05/29 03:26:25;;;;;;;3.30;1.70;;;;;;;19.39;46.14;102388.53;5031277;28;20279;-60
2021/05/29 03:28:53;;;;;;;2.70;1.50;;;;;;;19.38;45.79;102395.59;5031841;28;20499;-59
2021/05/29 03:31:19;;;;;;;3.85;1.77;;;;;;;19.38;45.94;102389.50;5030104;28;20449;-62
2021/05/29 03:33:44;;;;;;;3.58;1.75;;;;;;;19.38;45.73;102395.59;5031671;28;20033;-60
2021/05/29 03:36:09;;;;;;;2.90;1.52;;;;;;;19.36;45.75;102394.88;5031293;28;20465;-59
2021/05/29 03:38:35;;;;;;;3.03;1.60;;;;;;;19.37;45.68;102401.84;5030986;28;20038;-59
2021/05/29 03:41:00;;;;;;;3.10;1.70;;;;;;;19.36;45.68;102399.31;5034908;28;20032;-60
2021/05/29 03:43:28;;;;;;;3.72;1.70;;;;;;;19.33;45.51;102400.34;5035263;28;20061;-59
2021/05/29 03:45:53;;;;;;;3.08;1.60;;;;;;;19.35;45.62;102403.72;5035018;28;20018;-60
2021/05/29 03:48:22;;;;;;;2.80;1.60;;;;;;;19.34;45.71;102401.19;5035020;28;20075;-58
2021/05/29 03:50:47;;;;;;;3.20;1.70;;;;;;;19.34;45.64;102402.06;5035132;28;20087;-59
2021/05/29 03:53:12;;;;;;;4.03;1.67;;;;;;;19.34;45.75;102399.41;5034109;28;20140;-58
2021/05/29 03:55:40;;;;;;;3.42;1.88;;;;;;;19.34;45.53;102398.53;5035202;28;20029;-60
2021/05/29 03:58:09;;;;;;;2.60;1.40;;;;;;;19.32;45.78;102406.56;5034175;28;20025;-58
2021/05/29 04:00:34;;;;;;;3.03;1.65;;;;;;;19.32;45.58;102403.91;5035163;28;20159;-60
2021/05/29 04:03:00;;;;;;;3.67;1.77;;;;;;;19.31;45.89;102401.38;5035000;28;20104;-60
2021/05/29 04:05:25;;;;;;;3.60;1.70;;;;;;;19.32;45.75;102411.00;5034038;28;20362;-59
2021/05/29 04:07:51;;;;;;;3.47;1.70;;;;;;;19.31;45.82;102404.88;5034580;28;20382;-58
2021/05/29 04:10:28;;;;;;;3.28;1.52;;;;;;;19.31;45.60;102401.38;5034477;28;20026;-59
2021/05/29 04:12:55;;;;;;;3.70;1.90;;;;;;;19.30;45.79;102412.91;5033895;28;20047;-59
2021/05/29 04:15:20;;;;;;;3.50;1.50;;;;;;;19.30;45.85;102408.47;5034149;28;20029;-59
2021/05/29 04:17:47;;;;;;;3.15;1.70;;;;;;;19.31;45.97;102410.16;5034399;28;20048;-59
2021/05/29 04:20:14;;;;;;;3.20;1.60;;;;;;;19.30;45.74;102410.25;5033393;28;20068;-59
2021/05/29 04:22:46;;;;;;;3.45;1.70;;;;;;;19.29;45.97;102403.25;5034381;28;20052;-59
2021/05/29 04:25:14;;;;;;;2.67;1.50;;;;;;;19.29;45.98;102409.41;5034198;28;20100;-59
2021/05/29 04:27:40;;;;;;;3.17;1.80;;;;;;;19.30;45.70;102408.47;5034008;28;20060;-58
2021/05/29 04:30:09;;;;;;;4.22;1.70;;;;;;;19.29;45.47;102412.03;5034144;28;20018;-58
2021/05/29 04:32:34;;;;;;;3.50;1.58;;;;;;;19.29;45.60;102412.03;5034168;28;20045;-60
2021/05/29 04:35:00;;;;;;;3.63;1.75;;;;;;;19.29;45.61;102416.47;5033815;28;20022;-59
2021/05/29 04:37:25;;;;;;;2.90;1.60;;;;;;;19.28;45.79;102418.28;5034090;28;20112;-59
2021/05/29 04:39:50;;;;;;;2.92;1.60;;;;;;;19.26;45.68;102417.50;5034286;28;20385;-60
2021/05/29 04:42:16;;;;;;;3.40;1.60;;;;;;;19.28;45.98;102422.69;5033338;28;20156;-59
2021/05/29 04:44:41;;;;;;;3.08;1.65;;;;;;;19.26;45.80;102422.78;5034292;28;20029;-60
2021/05/29 04:47:06;;;;;;;3.20;1.65;;;;;;;19.29;45.74;102427.06;5033849;28;20040;-59
2021/05/29 04:49:32;;;;;;;3.80;1.70;;;;;;;19.26;45.59;102420.16;5033360;28;20463;-58
2021/05/29 04:52:04;;;;;;;3.42;1.65;;;;;;;19.27;45.94;102421.03;5032963;28;20025;-58
2021/05/29 04:54:30;;;;;;;4.05;1.58;;;;;;;19.25;45.96;102422.88;5033578;28;20022;-60
2021/05/29 04:56:55;;;;;;;3.70;1.80;;;;;;;19.27;45.84;102426.31;5034088;28;20080;-59
2021/05/29 04:59:20;;;;;;;4.28;1.92;;;;;;;19.27;45.87;102436.88;5033828;28;20129;-59
2021/05/29 05:01:46;;;;;;;4.03;1.50;;;;;;;19.27;45.79;102428.94;5033154;28;20461;-59
2021/05/29 05:04:11;;;;;;;2.90;1.67;;;;;;;19.27;45.66;102434.25;5033431;28;20352;-60
2021/05/29 05:06:36;;;;;;;2.65;1.50;;;;;;;19.25;45.71;102434.34;5034079;28;20024;-60
2021/05/29 05:09:03;;;;;;;3.42;1.95;;;;;;;19.27;45.73;102443.00;5032944;28;20100;-59
2021/05/29 05:11:29;;;;;;;3.53;1.70;;;;;;;19.23;45.50;102438.00;5034190;28;20017;-61
2021/05/29 05:13:54;;;;;;;3.88;1.85;;;;;;;19.27;45.62;102434.25;5033775;28;20033;-59
2021/05/29 05:16:19;;;;;;;3.72;1.73;;;;;;;19.25;45.73;102434.34;5032566;28;20436;-60
2021/05/29 05:18:45;;;;;;;3.63;1.90;;;;;;;19.27;45.75;102444.81;5033616;28;20108;-60
2021/05/29 05:21:10;;;;;;;3.35;1.63;;;;;;;19.27;45.58;102443.00;5033592;28;20053;-59
2021/05/29 05:23:39;;;;;;;4.03;1.75;;;;;;;19.28;45.93;102450.00;5032770;28;20036;-59
2021/05/29 05:26:05;;;;;;;2.92;1.67;;;;;;;19.26;45.83;102449.22;5033344;28;20025;-60
2021/05/29 05:28:30;;;;;;;3.25;1.60;;;;;;;19.31;46.06;102452.47;5033571;28;20066;-58
2021/05/29 05:30:59;;;;;;;2.97;1.60;;;;;;;19.35;46.03;102455.75;5033061;28;20021;-60
2021/05/29 05:33:25;;;;;;;3.75;1.52;;;;;;;19.36;45.94;102454.84;5032902;28;20050;-60
2021/05/29 05:35:51;;;;;;;3.92;1.50;;;;;;;19.43;45.96;102461.44;5033708;28;20036;-59
2021/05/29 05:38:17;;;;;;;3.20;1.90;;;;;;;19.44;45.79;102460.50;5032560;28;20037;-60
2021/05/29 05:40:42;;;;;;;3.05;1.52;;;;;;;19.49;45.75;102466.34;5033323;28;20033;-59
2021/05/29 05:43:14;;;;;;;2.38;1.40;;;;;;;19.54;45.40;102471.34;5032857;28;20251;-60
2021/05/29 05:45:39;;;;;;;3.83;1.50;;;;;;;19.57;45.42;102472.00;5031957;28;20041;-60
2021/05/29 05:48:06;;;;;;;3.25;1.70;;;;;;;19.60;45.28;102475.38;5032757;28;20030;-59
2021/05/29 05:50:31;;;;;;;4.45;1.70;;;;;;;19.65;45.47;102475.97;5032370;28;20037;-59
2021/05/29 05:52:57;;;;;;;2.45;1.33;;;;;;;19.65;45.15;102470.69;5032800;28;20024;-59
2021/05/29 05:55:23;;;;;;;3.72;1.42;;;;;;;19.66;45.19;102469.72;5032739;28;20033;-59
2021/05/29 05:57:48;;;;;;;3.35;1.50;;;;;;;19.70;45.44;102473.88;5032271;28;20024;-60
2021/05/29 06:00:15;;;;;;;2.58;1.25;;;;;;;19.71;45.48;102475.56;5032409;28;20109;-58
2021/05/29 06:02:42;;;;;;;3.13;1.50;;;;;;;19.72;45.04;102475.47;5032455;28;20036;-59
2021/05/29 06:05:09;;;;;;;2.97;1.50;;;;;;;19.70;45.20;102468.59;5031608;28;20030;-59
2021/05/29 06:07:35;;;;;;;2.63;1.40;;;;;;;19.73;45.39;102479.00;5032700;28;20033;-59
2021/05/29 06:10:00;;;;;;;2.42;1.23;;;;;;;19.69;45.17;102475.69;5032827;28;20457;-58
2021/05/29 06:12:25;;;;;;;2.75;1.40;;;;;;;19.74;45.47;102488.59;5031614;28;20139;-59
2021/05/29 06:20:21;;;;;;;3.67;1.52;;;;;;;19.74;45.46;102485.97;5034643;28;20064;-58
2021/05/29 06:22:53;;;;;;;3.25;1.58;;;;;;;19.77;45.91;102487.59;5032417;28;20421;-59
2021/05/29 06:25:18;;;;;;;4.75;1.45;;;;;;;19.78;45.89;102494.59;5032045;28;20109;-57
2021/05/29 06:27:43;;;;;;;2.63;1.40;;;;;;;19.79;46.33;102494.53;5031944;28;20438;-58
2021/05/29 06:30:12;;;;;;;2.72;1.40;;;;;;;19.81;46.14;102503.19;5032074;28;20270;-59
2021/05/29 06:32:38;;;;;;;2.97;1.42;;;;;;;19.83;46.37;102500.47;5032060;28;20534;-59
2021/05/29 06:35:07;;;;;;;5.28;1.65;;;;;;;19.83;46.65;102503.09;5030915;28;20018;-61
2021/05/29 06:37:34;;;;;;;3.83;1.27;;;;;;;19.85;46.55;102507.38;5031987;28;20051;-58
2021/05/29 06:39:59;;;;;;;3.53;1.30;;;;;;;19.87;46.53;102512.56;5031305;28;20045;-58
2021/05/29 06:42:25;;;;;;;2.33;1.43;;;;;;;19.87;46.42;102508.09;5031796;28;20069;-60
2021/05/29 06:44:50;;;;;;;4.15;1.45;;;;;;;19.89;46.56;102519.44;5032238;28;20270;-59
2021/05/29 06:47:15;;;;;;;2.72;1.20;;;;;;;19.90;46.52;102515.84;5031191;28;20028;-60
2021/05/29 06:49:42;;;;;;;3.13;1.60;;;;;;;19.92;46.68;102516.59;5032126;28;20052;-59
2021/05/29 06:52:09;;;;;;;2.65;1.27;;;;;;;19.91;46.89;102514.88;5031694;28;20036;-60
2021/05/29 06:59:44;;;;;;;4.60;1.42;;;;;;;19.93;47.33;102515.66;5032197;28;20397;-59
2021/05/29 07:02:10;;;;;;;3.92;1.30;;;;;;;19.97;47.05;102521.59;5030644;28;20025;-58
2021/05/29 07:04:35;;;;;;;3.60;1.50;;;;;;;19.96;47.25;102513.75;5031961;28;20079;-59
2021/05/29 07:07:01;;;;;;;3.10;1.30;;;;;;;19.99;47.24;102521.50;5031629;28;20041;-58
2021/05/29 07:09:26;;;;;;;3.67;1.40;;;;;;;19.97;47.45;102513.66;5031113;28;20491;-59
2021/05/29 07:11:54;;;;;;;3.22;1.42;;;;;;;20.01;47.30;102522.25;5031642;28;20156;-60
2021/05/29 07:14:19;;;;;;;4.53;1.63;;;;;;;20.01;47.63;102523.13;5032322;28;20029;-58
2021/05/29 07:16:47;;;;;;;3.22;1.20;;;;;;;20.02;47.21;102518.69;5035132;28;20398;-60
2021/05/29 07:19:15;;;;;;;2.92;1.30;;;;;;;20.01;47.38;102520.47;5035541;28;20032;-58
2021/05/29 07:21:40;;;;;;;3.17;1.35;;;;;;;20.03;47.18;102525.69;5035683;28;20022;-59
2021/05/29 07:24:06;;;;;;;3.70;1.80;;;;;;;20.01;47.60;102520.47;5034916;28;20041;-59
2021/05/29 07:26:32;;;;;;;3.58;1.27;;;;;;;20.03;47.24;102531.81;5035641;28;20104;-59
2021/05/29 07:28:57;;;;;;;3.35;1.50;;;;;;;20.04;47.33;102530.84;5035648;28;20186;-58
2021/05/29 07:31:24;;;;;;;3.58;1.40;;;;;;;20.06;47.51;102526.31;5034338;28;20112;-59
2021/05/29 07:33:51;;;;;;;4.05;1.40;;;;;;;20.10;47.65;102529.63;5036360;28;20042;-59
2021/05/29 07:36:17;;;;;;;3.03;1.40;;;;;;;20.11;47.49;102528.69;5036584;28;20165;-60
2021/05/29 07:38:43;;;;;;;2.83;1.30;;;;;;;20.14;47.65;102530.28;5037534;28;20411;-60
2021/05/29 07:41:09;;;;;;;4.00;1.23;;;;;;;20.15;47.59;102529.34;5035356;28;20062;-60
2021/05/29 07:43:34;;;;;;;3.22;1.17;;;;;;;20.18;47.45;102526.50;5034863;28;20053;-59
2021/05/29 07:46:00;;;;;;;2.45;1.20;;;;;;;20.18;47.61;102529.97;5035966;28;20026;-59
2021/05/29 07:48:26;;;;;;;2.08;0.98;;;;;;;20.19;47.36;102534.34;5035126;28;20032;-60
2021/05/29 07:50:58;;;;;;;2.55;1.17;;;;;;;20.19;47.48;102533.50;5033206;28;20461;-58
2021/05/29 07:53:25;;;;;;;2.83;1.10;;;;;;;20.20;47.56;102532.53;5035179;28;20388;-59
2021/05/29 07:55:51;;;;;;;3.10;1.25;;;;;;;20.20;47.23;102532.53;5035236;28;20026;-59
2021/05/29 07:58:16;;;;;;;2.72;1.13;;;;;;;20.21;47.19;102532.44;5034397;28;20076;-59
2021/05/29 08:00:44;;;;;;;2.95;1.25;;;;;;;20.21;47.40;102535.09;5034921;28;20041;-59
2021/05/29 08:03:10;;;;;;;2.45;1.30;;;;;;;20.21;47.46;102542.19;5034864;28;20043;-58
2021/05/29 08:05:35;;;;;;;3.38;1.40;;;;;;;20.19;47.09;102544.94;5034483;28;20025;-59
2021/05/29 08:08:00;;;;;;;3.45;1.30;;;;;;;20.19;47.23;102550.22;5035029;28;20024;-58
2021/05/29 08:10:26;;;;;;;4.00;1.20;;;;;;;20.17;47.40;102540.66;5035283;28;20026;-60
2021/05/29 08:12:51;;;;;;;2.60;1.15;;;;;;;20.20;47.34;102549.28;5034323;28;20132;-61
2021/05/29 08:15:17;;;;;;;3.67;1.38;;;;;;;20.22;47.33;102555.31;5034663;28;20075;-60
2021/05/29 08:17:42;;;;;;;3.50;1.20;;;;;;;20.22;47.29;102547.38;5035093;28;20018;-60
2021/05/29 08:20:08;;;;;;;2.67;1.08;;;;;;;20.23;47.51;102537.63;5033708;28;20083;-60
2021/05/29 08:22:33;;;;;;;2.45;1.23;;;;;;;20.25;47.66;102551.63;5035144;28;20033;-59
2021/05/29 08:24:59;;;;;;;3.70;1.30;;;;;;;20.24;47.54;102548.13;5034503;28;20025;-59
2021/05/29 08:27:24;;;;;;;2.95;1.05;;;;;;;20.24;47.83;102549.94;5033646;28;20465;-59
2021/05/29 08:29:49;;;;;;;2.35;1.17;;;;;;;20.21;47.54;102540.38;5034647;28;20366;-59
2021/05/29 08:32:21;;;;;;;2.42;1.20;;;;;;;20.24;47.40;102548.13;5033798;28;20041;-60
2021/05/29 08:34:46;;;;;;;2.92;1.10;;;;;;;20.26;47.88;102542.72;5034909;28;20021;-59
2021/05/29 08:37:11;;;;;;;2.38;1.20;;;;;;;20.28;47.83;102557.59;5034550;28;20080;-59
2021/05/29 08:39:36;;;;;;;2.93;1.30;;;;;;;20.27;47.72;102557.69;5033954;28;20029;-59
2021/05/29 08:42:04;;;;;;;2.53;1.20;;;;;;;20.30;47.77;102557.50;5034117;28;20286;-60
2021/05/29 08:44:32;;;;;;;3.38;1.15;;;;;;;20.30;47.83;102568.09;5034328;28;20029;-59
2021/05/29 08:46:57;;;;;;;2.70;1.20;;;;;;;20.28;47.76;102565.53;5033463;28;20037;-59
2021/05/29 08:49:23;;;;;;;3.35;1.10;;;;;;;20.29;47.77;102566.38;5034100;28;20025;-59
2021/05/29 08:51:49;;;;;;;3.42;1.40;;;;;;;20.28;48.06;102567.31;5034343;28;20025;-58
2021/05/29 08:54:25;;;;;;;;;;;;;;;;;;;;;
2021/05/29 08:56:50;;;;;;;2.47;1.23;;;;;;;20.26;47.73;102562.09;5031968;28;20041;-58
2021/05/29 08:59:18;;;;;;;2.88;1.27;;;;;;;20.27;47.63;102566.47;5033751;28;20385;-60
2021/05/29 09:01:43;;;;;;;3.60;1.40;;;;;;;20.23;47.48;102567.59;5033230;28;20032;-58
2021/05/29 09:04:09;;;;;;;3.20;1.35;;;;;;;20.23;47.32;102564.94;5033699;28;20030;-60
2021/05/29 09:06:34;;;;;;;2.70;1.35;;;;;;;20.26;47.61;102561.25;5033966;28;20105;-59
2021/05/29 09:09:02;;;;;;;3.70;1.40;;;;;;;20.25;47.61;102565.72;5033332;28;20073;-59
2021/05/29 09:11:53;;;;;;;3.45;1.42;;;;;;;20.21;47.33;102563.34;5050099;28;20282;-58
2021/05/29 09:14:27;;;;;;;2.78;1.38;;;;;;;20.25;47.66;102567.50;5033652;28;20037;-59
2021/05/29 09:16:59;;;;;;;2.70;1.33;;;;;;;20.25;47.31;102556.91;5033753;28;20105;-58
2021/05/29 09:19:24;;;;;;;3.72;1.35;;;;;;;20.25;47.58;102568.38;5033728;28;20104;-59
2021/05/29 09:21:49;;;;;;;4.63;1.37;;;;;;;20.22;47.50;102565.91;5033036;28;20144;-59
2021/05/29 09:24:17;;;;;;;2.57;1.10;;;;;;;20.22;47.14;102571.22;5032794;28;20294;-59
2021/05/29 09:26:55;;;;;;;3.58;1.20;;;;;;;20.21;47.30;102569.50;5033774;28;20270;-59
2021/05/29 09:29:26;;;;;;;2.55;1.20;;;;;;;20.22;47.01;102572.97;5032841;28;20059;-59
2021/05/29 09:32:05;;;;;;;3.33;1.10;;;;;;;20.24;47.32;102573.75;5033678;28;20493;-60
2021/05/29 09:34:46;;;;;;;3.67;1.23;;;;;;;20.22;47.15;102568.56;5033572;28;20030;-58
2021/05/29 09:37:14;;;;;;;3.20;1.23;;;;;;;20.20;47.40;102566.94;5031733;28;20425;-62
2021/05/29 09:39:44;;;;;;;2.35;1.05;;;;;;;20.25;46.98;102573.66;5033808;28;20071;-60
2021/05/29 09:42:14;;;;;;;3.75;1.20;;;;;;;20.27;47.25;102571.75;5033503;28;20026;-59
2021/05/29 09:44:40;;;;;;;3.42;1.30;;;;;;;20.29;46.90;102579.59;5032808;28;20032;-59
2021/05/29 09:47:12;;;;;;;3.75;1.42;;;;;;;20.30;47.13;102576.03;5033464;28;20104;-60
2021/05/29 09:49:53;;;;;;;2.80;1.02;;;;;;;20.27;47.33;102579.69;5033521;28;20026;-58
2021/05/29 09:52:32;;;;;;;3.25;1.48;;;;;;;20.29;47.09;102582.25;5033499;28;20064;-59
2021/05/29 09:55:00;;;;;;;2.78;1.40;;;;;;;20.30;47.28;102587.44;5033455;28;20100;-60
2021/05/29 09:57:29;;;;;;;4.13;1.30;;;;;;;20.30;46.95;102583.97;5032573;28;20453;-59
2021/05/29 10:00:06;;;;;;;3.15;1.33;;;;;;;20.34;47.26;102579.31;5033665;28;20079;-60
2021/05/29 10:02:31;;;;;;;3.00;1.10;;;;;;;20.36;47.17;102577.41;5033289;28;20041;-60
2021/05/29 10:04:57;;;;;;;2.10;1.08;;;;;;;20.37;47.02;102582.59;5032678;28;20029;-59
2021/05/29 10:07:25;;;;;;;1.92;1.00;;;;;;;20.40;47.28;102578.94;5032909;28;20021;-60
2021/05/29 10:09:51;;;;;;;2.60;1.27;;;;;;;20.40;47.09;102582.41;5033756;28;20025;-59
2021/05/29 10:12:17;;;;;;;2.45;1.20;;;;;;;20.42;47.17;102585.81;5033055;28;20026;-58
2021/05/29 10:14:43;;;;;;;2.60;1.30;;;;;;;20.43;47.08;102589.34;5036279;28;20037;-59
2021/05/29 10:17:10;;;;;;;2.75;1.25;;;;;;;20.45;47.11;102590.06;5040580;28;20056;-60
2021/05/29 10:19:39;;;;;;;3.50;1.20;;;;;;;20.43;47.10;102587.53;5040353;28;20025;-59
2021/05/29 10:22:07;;;;;;;2.78;1.20;;;;;;;20.43;47.16;102579.56;5038796;28;20385;-61
2021/05/29 10:24:33;;;;;;;2.67;1.30;;;;;;;20.46;47.00;102587.31;5037511;28;20035;-60
2021/05/29 10:27:05;;;;;;;2.35;1.13;;;;;;;20.47;47.25;102582.88;5036688;28;20448;-59
2021/05/29 10:29:31;;;;;;;2.92;1.27;;;;;;;20.48;46.99;102574.00;5034470;28;20057;-58
2021/05/29 10:32:15;;;;;;;3.58;1.30;;;;;;;20.47;47.11;102578.44;5032872;28;20041;-62
2021/05/29 10:35:04;;;;;;;2.72;1.30;;;;;;;20.46;47.14;102582.03;5034204;28;20113;-59
2021/05/29 10:37:43;;;;;;;2.40;1.20;;;;;;;20.46;47.35;102571.44;5033372;28;20037;-59
2021/05/29 10:40:21;;;;;;;2.90;1.17;;;;;;;20.46;47.35;102582.03;5033618;28;20607;-60
2021/05/29 10:42:49;;;;;;;2.58;1.17;;;;;;;20.46;47.47;102573.25;5033708;28;20037;-60
2021/05/29 10:45:20;;;;;;;2.53;1.20;;;;;;;20.44;47.49;102577.78;5033192;28;20026;-60
2021/05/29 10:48:02;;;;;;;2.47;1.20;;;;;;;20.39;47.80;102574.56;5032179;28;20029;-57
2021/05/29 10:53:45;;;;;;;3.22;1.20;;;;;;;20.40;47.44;102568.34;5032556;28;20033;-60
2021/05/29 10:56:17;;;;;;;4.40;1.45;;;;;;;20.36;47.40;102575.63;5032664;28;20021;-59
2021/05/29 10:59:05;;;;;;;3.42;1.30;;;;;;;20.38;47.65;102575.53;5032800;28;20026;-59
2021/05/29 11:04:11;;;;;;;2.53;1.20;;;;;;;20.38;47.42;102570.25;5031915;28;20370;-58
2021/05/29 11:06:38;;;;;;;;;;;;;;;20.39;47.57;102564.81;5033307;28;20025;-60
2021/05/29 11:09:05;;;;;;;2.58;1.20;;;;;;;20.42;47.44;102574.38;5031316;28;19967;-59
2021/05/29 11:11:31;;;;;;;2.88;1.30;;;;;;;20.43;47.30;102566.34;5032425;28;20424;-59
2021/05/29 11:14:01;;;;;;;2.53;1.20;;;;;;;20.46;47.14;102565.31;5032536;28;20030;-59
2021/05/29 11:16:51;;;;;;;4.35;1.20;;;;;;;20.45;47.53;102563.59;5031943;28;20044;-59
2021/05/29 11:19:21;;;;;;;3.78;1.30;;;;;;;20.41;47.70;102562.06;5025775;28;20045;-58
2021/05/29 11:22:15;;;;;;;3.28;1.27;;;;;;;20.41;47.78;102562.94;5031667;28;20068;-60
2021/05/29 11:24:44;;;;;;;2.78;1.20;;;;;;;20.41;47.38;102564.72;5032563;28;20171;-60
2021/05/29 11:27:27;;;;;;;4.07;1.27;;;;;;;20.39;47.51;102562.16;5032076;28;20025;-60
2021/05/29 11:30:11;;;;;;;2.47;1.30;;;;;;;20.42;47.16;102558.50;5031708;28;20085;-60
2021/05/29 11:35:27;;;;;;;4.43;1.10;;;;;;;20.47;47.18;102574.94;5032958;28;20112;-60
2021/05/29 11:38:07;;;;;;;2.70;1.25;;;;;;;20.48;47.43;102563.41;5032197;28;20025;-60
2021/05/29 11:41:08;;;;;;;2.42;1.30;;;;;;;20.51;47.28;102557.06;5032441;28;20037;-60
2021/05/29 11:43:37;;;;;;;2.22;1.20;;;;;;;20.50;47.48;102553.53;5031653;28;20052;-61
2021/05/29 11:46:08;;;;;;;3.55;1.42;;;;;;;20.52;47.08;102559.63;5031911;28;20520;-60
2021/05/29 11:48:45;;;;;;;2.90;1.23;;;;;;;20.51;47.25;102563.19;5032407;28;20030;-57